createdAt,value
2022-07-28T03:18:02.035Z,15.70
2022-07-28T03:20:30.906Z,11.60
2022-07-28T03:22:59.538Z,11.50
2022-07-28T03:25:33.981Z,11.50
2022-07-28T03:28:04.468Z,11.50
2022-07-28T03:30:37.940Z,11.50
2022-07-28T03:33:08.329Z,11.50
2022-07-28T03:35:40.475Z,11.70
2022-07-28T03:38:12.952Z,11.80
2022-07-28T03:40:46.096Z,11.70
2022-07-28T03:43:16.906Z,11.70
2022-07-28T03:45:46.966Z,11.70
2022-07-28T03:48:17.258Z,11.70
2022-07-28T03:50:47.597Z,11.70
2022-07-28T03:53:21.257Z,11.60
2022-07-28T03:55:52.011Z,11.80
2022-07-28T03:58:20.723Z,11.90
2022-07-28T04:00:49.837Z,12.00
2022-07-28T04:03:35.728Z,12.00
2022-07-28T04:06:09.278Z,12.20
2022-07-28T04:08:37.654Z,12.20
2022-07-28T04:11:06.198Z,12.20
2022-07-28T04:13:36.700Z,12.10
2022-07-28T04:16:07.391Z,12.00
2022-07-28T04:18:37.270Z,12.00
2022-07-28T04:21:08.221Z,12.00
2022-07-28T04:23:36.792Z,12.00
2022-07-28T04:26:05.279Z,11.90
2022-07-28T04:28:34.191Z,12.00
2022-07-28T04:31:02.550Z,12.10
2022-07-28T04:33:31.825Z,12.10
2022-07-28T04:36:02.513Z,11.90
2022-07-28T04:38:31.055Z,11.90
2022-07-28T04:40:59.319Z,11.90
2022-07-28T04:43:27.777Z,11.80
2022-07-28T04:45:56.088Z,11.70
2022-07-28T04:48:25.399Z,11.60
2022-07-28T04:50:53.888Z,11.70
2022-07-28T04:53:24.286Z,12.00
2022-07-28T04:55:53.548Z,12.10
2022-07-28T04:58:23.747Z,12.10
2022-07-28T05:00:52.988Z,12.30
2022-07-28T05:03:22.201Z,12.50
2022-07-28T05:05:57.713Z,12.60
2022-07-28T05:08:27.432Z,12.70
2022-07-28T05:10:56.961Z,12.70
2022-07-28T05:13:30.345Z,12.70
2022-07-28T05:16:02.637Z,12.60
2022-07-28T05:18:31.231Z,12.90
2022-07-28T05:20:59.458Z,13.00
2022-07-28T05:23:29.592Z,13.10
2022-07-28T05:25:59.582Z,13.10
2022-07-28T05:28:28.215Z,13.00
2022-07-28T05:30:56.750Z,13.00
2022-07-28T05:33:25.235Z,13.10
2022-07-28T05:36:00.443Z,13.20
2022-07-28T05:38:32.573Z,13.20
2022-07-28T05:41:01.878Z,13.30
2022-07-28T05:43:30.348Z,13.30
2022-07-28T05:45:59.672Z,13.10
2022-07-28T05:48:28.329Z,13.40
2022-07-28T05:50:57.133Z,13.70
2022-07-28T05:53:25.841Z,13.70
2022-07-28T05:55:59.799Z,13.80
2022-07-28T05:58:29.548Z,14.10
2022-07-28T06:01:01.727Z,14.10
2022-07-28T06:03:32.159Z,13.90
2022-07-28T06:06:14.743Z,13.60
2022-07-28T06:08:46.793Z,13.70
2022-07-28T06:11:22.843Z,13.80
2022-07-28T06:13:52.821Z,14.10
2022-07-28T06:16:23.830Z,14.30
2022-07-28T06:18:52.796Z,14.60
2022-07-28T06:21:23.565Z,14.80
2022-07-28T06:23:51.786Z,15.40
2022-07-28T06:26:23.814Z,15.80
2022-07-28T06:28:52.705Z,16.30
2022-07-28T06:31:21.007Z,16.40
2022-07-28T06:33:49.303Z,16.50
2022-07-28T06:36:18.135Z,16.70
2022-07-28T06:38:46.706Z,16.90
2022-07-28T06:41:15.140Z,17.20
2022-07-28T06:43:46.270Z,17.40
2022-07-28T06:46:18.968Z,17.50
2022-07-28T06:48:47.804Z,17.50
2022-07-28T06:51:19.339Z,17.70
2022-07-28T06:53:48.839Z,17.80
2022-07-28T06:56:21.481Z,17.90
2022-07-28T06:58:51.979Z,18.20
2022-07-28T07:01:20.716Z,18.50
2022-07-28T07:03:49.102Z,18.30
2022-07-28T07:06:18.037Z,20.20
2022-07-28T07:08:47.351Z,22.40
2022-07-28T07:11:17.849Z,22.80
2022-07-28T07:13:46.168Z,23.20
2022-07-28T07:16:16.317Z,25.00
2022-07-28T07:18:44.937Z,25.80
2022-07-28T07:21:13.565Z,25.00
2022-07-28T07:23:41.893Z,25.10
2022-07-28T07:26:10.571Z,25.50
2022-07-28T07:28:38.940Z,25.20
2022-07-28T07:31:07.330Z,26.60
2022-07-28T07:33:37.447Z,26.00
2022-07-28T07:36:06.954Z,27.00
2022-07-28T07:38:36.554Z,26.40
2022-07-28T07:41:05.268Z,26.60
2022-07-28T07:43:35.072Z,26.90
2022-07-28T07:46:03.362Z,25.30
2022-07-28T07:48:32.649Z,26.90
2022-07-28T07:51:04.934Z,26.80
2022-07-28T07:53:33.888Z,26.10
2022-07-28T07:56:02.414Z,27.40
2022-07-28T07:58:30.766Z,27.20
2022-07-28T08:00:59.416Z,28.20
2022-07-28T08:03:28.925Z,29.00
2022-07-28T08:05:57.806Z,28.60
2022-07-28T08:08:27.710Z,28.90
2022-07-28T08:10:56.446Z,27.00
2022-07-28T08:13:24.989Z,28.00
2022-07-28T08:15:53.403Z,27.60
2022-07-28T08:18:21.801Z,26.90
2022-07-28T08:20:50.011Z,27.00
2022-07-28T08:23:22.874Z,26.60
2022-07-28T08:25:55.995Z,27.30
2022-07-28T08:28:24.512Z,27.70
2022-07-28T08:30:53.179Z,28.80
2022-07-28T08:33:22.104Z,29.80
2022-07-28T08:35:51.034Z,28.80
2022-07-28T08:38:20.098Z,29.50
2022-07-28T08:40:51.430Z,29.60
2022-07-28T08:43:33.512Z,28.70
2022-07-28T08:46:04.478Z,28.20
2022-07-28T08:48:34.345Z,28.50
2022-07-28T08:51:05.316Z,28.90
2022-07-28T08:53:34.014Z,28.00
2022-07-28T08:56:05.128Z,27.30
2022-07-28T08:58:36.610Z,29.10
2022-07-28T09:01:07.148Z,28.20
2022-07-28T09:03:35.886Z,29.30
2022-07-28T09:06:04.625Z,29.00
2022-07-28T09:08:33.264Z,28.70
2022-07-28T09:11:04.340Z,28.20
2022-07-28T09:13:34.198Z,28.20
2022-07-28T09:16:02.652Z,28.80
2022-07-28T09:18:30.904Z,29.40
2022-07-28T09:20:59.337Z,30.70
2022-07-28T09:23:44.513Z,29.90
2022-07-28T09:26:14.206Z,29.10
2022-07-28T09:28:52.091Z,30.40
2022-07-28T09:31:22.468Z,28.70
2022-07-28T09:34:01.762Z,29.70
2022-07-28T09:36:31.232Z,28.40
2022-07-28T09:38:59.845Z,27.80
2022-07-28T09:41:28.205Z,26.60
2022-07-28T09:43:58.392Z,27.60
2022-07-28T09:46:29.213Z,26.90
2022-07-28T09:49:00.224Z,25.70
2022-07-28T09:51:30.664Z,25.00
2022-07-28T09:54:09.614Z,25.10
2022-07-28T09:56:38.236Z,24.60
2022-07-28T09:59:10.585Z,25.10
2022-07-28T10:01:54.372Z,24.70
2022-07-28T10:04:36.354Z,24.30
2022-07-28T10:07:07.292Z,24.70
2022-07-28T10:09:38.317Z,24.90
2022-07-28T10:12:21.191Z,24.90
2022-07-28T10:14:52.427Z,24.30
2022-07-28T10:17:31.486Z,24.50
2022-07-28T10:20:03.612Z,25.50
2022-07-28T10:22:38.290Z,24.90
2022-07-28T10:25:12.676Z,24.90
2022-07-28T10:27:42.960Z,25.30
2022-07-28T10:30:15.223Z,25.80
2022-07-28T10:32:45.985Z,25.30
2022-07-28T10:35:16.378Z,25.60
2022-07-28T10:37:51.790Z,25.50
2022-07-28T10:40:26.195Z,25.30
2022-07-28T10:42:56.652Z,25.40
2022-07-28T10:45:47.941Z,25.50
2022-07-28T10:48:16.859Z,26.10
2022-07-28T10:50:46.078Z,25.60
2022-07-28T10:53:25.601Z,25.10
2022-07-28T10:56:01.889Z,24.90
2022-07-28T10:58:41.936Z,25.40
2022-07-28T11:01:32.387Z,25.70
2022-07-28T11:04:03.140Z,25.30
2022-07-28T11:06:35.260Z,24.40
2022-07-28T11:09:27.105Z,24.40
2022-07-28T11:12:02.586Z,24.50
2022-07-28T11:14:39.351Z,23.80
2022-07-28T11:17:24.375Z,23.50
2022-07-28T11:22:57.140Z,24.90
2022-07-28T11:25:41.694Z,24.80
2022-07-28T11:28:14.387Z,24.50
2022-07-28T11:30:55.731Z,25.10
2022-07-28T11:33:27.635Z,25.30
2022-07-28T11:36:02.235Z,25.70
2022-07-28T11:38:30.909Z,25.20
2022-07-28T11:40:59.361Z,24.80
2022-07-28T11:43:37.807Z,25.00
2022-07-28T11:46:40.381Z,25.70
2022-07-28T11:49:27.977Z,25.30
2022-07-28T11:52:24.385Z,25.20
2022-07-28T11:55:00.627Z,25.50
2022-07-28T11:57:29.586Z,25.30
2022-07-28T12:00:05.344Z,25.20
2022-07-28T12:02:35.632Z,25.60
2022-07-28T12:05:12.598Z,25.30
2022-07-28T12:07:46.628Z,25.00
2022-07-28T12:10:54.587Z,25.60
2022-07-28T12:13:27.467Z,25.10
2022-07-28T12:15:55.999Z,25.50
2022-07-28T12:18:25.161Z,25.30
2022-07-28T12:20:55.942Z,25.70
2022-07-28T12:23:38.703Z,25.80
2022-07-28T12:26:12.760Z,26.00
2022-07-28T12:28:51.723Z,26.90
2022-07-28T12:31:25.962Z,27.00
2022-07-28T12:33:55.694Z,26.00
2022-07-28T12:36:25.918Z,25.80
2022-07-28T12:38:54.700Z,26.20
2022-07-28T12:41:25.954Z,26.50
2022-07-28T12:43:55.778Z,25.90
2022-07-28T12:46:28.614Z,25.60
2022-07-28T12:48:59.582Z,26.10
2022-07-28T12:51:37.803Z,25.90
2022-07-28T12:54:08.429Z,25.70
2022-07-28T12:56:47.046Z,25.80
2022-07-28T12:59:18.601Z,26.50
2022-07-28T13:01:51.554Z,26.70
2022-07-28T13:04:40.409Z,26.40
2022-07-28T13:07:12.952Z,26.50
2022-07-28T13:09:49.071Z,27.00
2022-07-28T13:12:24.636Z,26.90
2022-07-28T13:14:56.823Z,26.50
2022-07-28T13:17:30.975Z,26.60
2022-07-28T13:20:07.676Z,26.90
2022-07-28T13:22:40.046Z,26.80
2022-07-28T13:25:09.477Z,26.70
2022-07-28T13:27:39.676Z,26.30
2022-07-28T13:30:09.864Z,26.50
2022-07-28T13:32:38.575Z,26.80
2022-07-28T13:35:14.856Z,26.90
2022-07-28T13:37:48.083Z,27.30
2022-07-28T13:40:16.497Z,27.20
2022-07-28T13:42:52.830Z,27.60
2022-07-28T13:45:30.339Z,27.70
2022-07-28T13:48:01.185Z,27.50
2022-07-28T13:50:29.879Z,27.20
2022-07-28T13:53:00.509Z,27.00
2022-07-28T13:55:30.057Z,27.20
2022-07-28T13:57:58.489Z,27.20
2022-07-28T14:00:28.808Z,26.90
2022-07-28T14:02:58.052Z,27.30
2022-07-28T14:05:32.153Z,27.00
2022-07-28T14:08:06.431Z,26.70
2022-07-28T14:10:36.080Z,26.90
2022-07-28T14:13:04.547Z,26.60
2022-07-28T14:15:33.007Z,26.30
2022-07-28T14:18:01.449Z,26.30
2022-07-28T14:20:29.774Z,27.20
2022-07-28T14:22:58.683Z,27.20
2022-07-28T14:25:47.941Z,27.40
2022-07-28T14:28:17.877Z,28.00
2022-07-28T14:30:46.783Z,27.70
2022-07-28T14:33:15.361Z,27.60
2022-07-28T14:35:43.704Z,27.40
2022-07-28T14:38:51.156Z,27.40
2022-07-28T14:41:04.821Z,27.30
2022-07-28T14:43:33.687Z,27.10
2022-07-28T14:46:16.405Z,27.20
2022-07-28T14:48:46.712Z,27.00
2022-07-28T14:51:15.653Z,26.90
2022-07-28T14:53:51.689Z,27.20
2022-07-28T14:56:22.063Z,27.10
2022-07-28T14:58:50.805Z,27.10
2022-07-28T15:01:19.338Z,27.20
2022-07-28T15:03:47.795Z,27.20
2022-07-28T15:06:16.559Z,27.10
2022-07-28T15:08:45.558Z,27.30
2022-07-28T15:11:14.106Z,27.50
2022-07-28T15:13:44.976Z,27.00
2022-07-28T15:16:13.519Z,27.00
2022-07-28T15:18:42.376Z,27.20
2022-07-28T15:21:13.930Z,26.90
2022-07-28T15:23:44.492Z,27.00
2022-07-28T15:26:18.891Z,26.90
2022-07-28T15:28:51.419Z,26.90
2022-07-28T15:31:20.799Z,26.30
2022-07-28T15:33:57.764Z,26.60
2022-07-28T15:36:30.369Z,26.90
2022-07-28T15:38:59.852Z,26.90
2022-07-28T15:41:31.651Z,27.20
2022-07-28T15:44:01.953Z,26.80
2022-07-28T15:46:33.665Z,27.10
2022-07-28T15:49:07.787Z,26.60
2022-07-28T15:51:37.305Z,26.40
2022-07-28T15:54:07.258Z,26.60
2022-07-28T15:56:38.157Z,26.70
2022-07-28T15:59:11.457Z,26.70
2022-07-28T16:01:45.344Z,26.50
2022-07-28T16:04:14.630Z,26.40
2022-07-28T16:07:01.613Z,26.70
2022-07-28T16:09:46.299Z,26.70
2022-07-28T16:12:25.924Z,26.70
2022-07-28T16:14:58.377Z,26.60
2022-07-28T16:17:29.998Z,26.50
2022-07-28T16:20:02.104Z,26.50
2022-07-28T16:22:31.134Z,26.50
2022-07-28T16:25:05.299Z,26.50
2022-07-28T16:27:43.225Z,26.30
2022-07-28T16:30:14.046Z,26.30
2022-07-28T16:32:43.583Z,25.80
2022-07-28T16:35:12.230Z,26.00
2022-07-28T16:37:41.390Z,26.00
2022-07-28T16:40:14.372Z,26.00
2022-07-28T16:42:45.246Z,26.10
2022-07-28T16:45:16.766Z,26.10
2022-07-28T16:47:46.394Z,25.70
2022-07-28T16:50:18.763Z,26.00
2022-07-28T16:52:47.164Z,25.80
2022-07-28T16:55:20.071Z,25.90
2022-07-28T16:57:55.102Z,25.90
2022-07-28T17:00:27.172Z,25.50
2022-07-28T17:02:55.964Z,25.40
2022-07-28T17:05:24.962Z,25.60
2022-07-28T17:07:53.571Z,25.50
2022-07-28T17:10:27.231Z,25.50
2022-07-28T17:12:56.502Z,25.40
2022-07-28T17:15:27.681Z,25.40
2022-07-28T17:17:56.765Z,25.30
2022-07-28T17:20:25.703Z,25.20
2022-07-28T17:22:54.245Z,25.10
2022-07-28T17:25:44.547Z,25.20
2022-07-28T17:28:11.263Z,25.10
2022-07-28T17:30:41.676Z,25.00
2022-07-28T17:33:10.053Z,25.00
2022-07-28T17:35:38.933Z,24.90
2022-07-28T17:38:09.596Z,24.80
2022-07-28T17:40:40.334Z,24.90
2022-07-28T17:43:11.816Z,24.80
2022-07-28T17:45:41.695Z,24.70
2022-07-28T17:48:09.970Z,24.80
2022-07-28T17:50:38.752Z,24.70
2022-07-28T17:53:07.263Z,24.60
2022-07-28T17:56:00.570Z,24.50
2022-07-28T17:58:27.827Z,24.40
2022-07-28T18:01:10.006Z,24.40
2022-07-28T18:03:57.144Z,24.50
2022-07-28T18:06:30.763Z,24.60
2022-07-28T18:09:05.679Z,24.60
2022-07-28T18:11:43.381Z,24.50
2022-07-28T18:14:25.893Z,24.40
2022-07-28T18:16:56.455Z,24.40
2022-07-28T18:19:24.769Z,24.30
2022-07-28T18:21:53.303Z,24.20
2022-07-28T18:24:22.702Z,24.10
2022-07-28T18:26:51.571Z,24.00
2022-07-28T18:29:21.670Z,24.10
2022-07-28T18:31:51.800Z,24.20
2022-07-28T18:34:23.557Z,24.20
2022-07-28T18:36:55.031Z,24.00
2022-07-28T18:39:23.964Z,23.90
2022-07-28T18:41:54.786Z,23.80
2022-07-28T18:44:23.360Z,23.80
2022-07-28T18:46:52.515Z,23.80
2022-07-28T18:49:22.455Z,23.60
2022-07-28T18:51:55.201Z,23.60
2022-07-28T18:54:27.609Z,23.50
2022-07-28T18:56:58.528Z,23.50
2022-07-28T18:59:27.095Z,23.40
2022-07-28T19:01:55.480Z,23.30
2022-07-28T19:04:25.370Z,23.30
2022-07-28T19:06:53.862Z,23.20
2022-07-28T19:09:22.234Z,23.20
2022-07-28T19:11:51.001Z,23.10
2022-07-28T19:14:21.141Z,23.10
2022-07-28T19:16:50.308Z,23.10
2022-07-28T19:19:18.780Z,23.00
2022-07-28T19:21:52.608Z,23.00
2022-07-28T19:24:21.156Z,23.00
2022-07-28T19:26:54.086Z,22.80
2022-07-28T19:29:27.441Z,22.80
2022-07-28T19:31:55.820Z,22.60
2022-07-28T19:34:24.170Z,22.40
2022-07-28T19:36:58.862Z,22.50
2022-07-28T19:39:28.939Z,22.30
2022-07-28T19:41:57.717Z,22.30
2022-07-28T19:44:26.013Z,22.30
2022-07-28T19:46:56.240Z,22.20
2022-07-28T19:49:25.606Z,22.20
2022-07-28T19:51:55.946Z,22.30
2022-07-28T19:54:25.114Z,22.30
2022-07-28T19:56:53.779Z,22.20
2022-07-28T19:59:31.909Z,22.00
2022-07-28T20:02:01.411Z,22.10
2022-07-28T20:04:29.606Z,22.00
2022-07-28T20:06:59.155Z,21.90
2022-07-28T20:09:27.538Z,22.00
2022-07-28T20:11:56.690Z,21.80
2022-07-28T20:14:24.953Z,21.90
2022-07-28T20:16:53.396Z,21.80
2022-07-28T20:19:21.680Z,21.70
2022-07-28T20:21:49.892Z,21.70
2022-07-28T20:24:20.210Z,21.50
2022-07-28T20:26:48.463Z,21.50
2022-07-28T20:29:16.696Z,21.40
2022-07-28T20:31:45.112Z,21.40
2022-07-28T20:34:15.051Z,21.40
2022-07-28T20:39:42.283Z,21.20
2022-07-28T20:42:08.043Z,21.30
2022-07-28T20:44:36.588Z,21.20
2022-07-28T20:47:05.173Z,21.20
2022-07-28T20:49:34.134Z,21.00
2022-07-28T20:52:02.335Z,21.10
2022-07-28T20:54:32.415Z,21.10
2022-07-28T20:57:02.323Z,21.10
2022-07-28T20:59:30.708Z,21.10
2022-07-28T21:01:59.978Z,21.00
2022-07-28T21:04:28.515Z,21.00
2022-07-28T21:07:02.253Z,21.00
2022-07-28T21:09:32.895Z,21.00
2022-07-28T21:12:02.635Z,20.90
2022-07-28T21:14:32.278Z,20.90
2022-07-28T21:17:03.106Z,20.80
2022-07-28T21:19:31.412Z,20.90
2022-07-28T21:21:59.669Z,20.80
2022-07-28T21:24:29.405Z,20.70
2022-07-28T21:26:57.798Z,20.80
2022-07-28T21:29:27.842Z,20.70
2022-07-28T21:32:02.138Z,20.70
2022-07-28T21:34:35.352Z,20.70
2022-07-28T21:37:03.928Z,20.70
2022-07-28T21:39:32.819Z,20.70
2022-07-28T21:42:03.716Z,20.70
2022-07-28T21:44:38.241Z,20.70
2022-07-28T21:47:07.546Z,20.70
2022-07-28T21:49:36.174Z,20.70
2022-07-28T21:52:05.009Z,20.70
2022-07-28T21:54:33.626Z,20.70
2022-07-28T21:57:24.827Z,20.70
2022-07-28T21:59:55.686Z,20.70
2022-07-28T22:02:24.289Z,20.70
2022-07-28T22:04:54.862Z,20.70
2022-07-28T22:07:24.271Z,20.60
2022-07-28T22:09:52.899Z,20.60
2022-07-28T22:12:21.668Z,20.60
2022-07-28T22:14:54.450Z,20.50
2022-07-28T22:17:24.842Z,20.50
2022-07-28T22:19:53.362Z,20.50
2022-07-28T22:22:22.041Z,20.50
2022-07-28T22:24:50.517Z,20.50
2022-07-28T22:27:22.346Z,20.50
2022-07-28T22:29:51.962Z,20.40
2022-07-28T22:32:28.699Z,20.40
2022-07-28T22:35:03.448Z,20.40
2022-07-28T22:37:32.054Z,20.40
2022-07-28T22:40:01.120Z,20.40
2022-07-28T22:42:29.864Z,20.50
2022-07-28T22:44:58.696Z,20.50
2022-07-28T22:47:27.280Z,20.60
2022-07-28T22:49:57.384Z,20.60
2022-07-28T22:52:27.937Z,20.60
2022-07-28T22:54:57.572Z,20.70
2022-07-28T22:57:26.780Z,20.60
2022-07-28T22:59:55.879Z,20.70
2022-07-28T23:02:26.359Z,20.70
2022-07-28T23:04:55.097Z,20.60
2022-07-28T23:07:50.666Z,20.60
2022-07-28T23:10:14.504Z,20.60
2022-07-28T23:12:43.041Z,20.50
2022-07-28T23:15:11.305Z,20.50
2022-07-28T23:17:39.685Z,20.50
2022-07-28T23:20:09.371Z,20.50
2022-07-28T23:22:38.163Z,20.50
2022-07-28T23:25:07.311Z,20.50
2022-07-28T23:27:37.363Z,20.40
2022-07-28T23:30:06.625Z,20.50
2022-07-28T23:32:35.389Z,20.40
2022-07-28T23:35:03.801Z,20.40
2022-07-28T23:37:35.052Z,20.40
2022-07-28T23:40:04.424Z,20.40
2022-07-28T23:42:32.930Z,20.40
2022-07-28T23:45:03.522Z,20.30
2022-07-28T23:47:34.610Z,20.20
2022-07-28T23:50:03.004Z,20.30
2022-07-28T23:52:31.733Z,20.20
2022-07-28T23:55:01.808Z,20.30
2022-07-28T23:57:31.096Z,20.30
